Time;durP1;ratioP1;P1;durP2;ratioP2;P2;SDS_P1;SDS_P2;PMS_P1;PMS_P2;Temp;Humidity;BMP_temperature;BMP_pressure;BME280_temperature;BME280_humidity;BME280_pressure;Samples;Min_cycle;Max_cycle;Signal;HPM_P1;HPM_P2
2022/06/24 00:01:34;;;;;;;7.70;2.50;;;;;;;;;;5021152;28;20037;-68
2022/06/24 00:03:59;;;;;;;5.35;1.90;;;;;;;;;;5021346;28;20033;-68
2022/06/24 00:06:29;;;;;;;3.85;2.20;;;;;;;;;;5021729;28;20052;-67
2022/06/24 00:08:59;;;;;;;7.13;2.05;;;;;;;;;;5019467;28;20041;-68
2022/06/24 00:11:26;;;;;;;4.65;1.98;;;;;;;;;;5019974;28;20509;-70
2022/06/24 00:14:03;;;;;;;4.88;1.75;;;;;;;;;;5003731;28;20056;-70
2022/06/24 00:16:28;;;;;;;5.32;1.60;;;;;;;;;;5021249;28;20087;-70
2022/06/24 00:19:14;;;;;;;2.42;1.50;;;;;;;;;;5020318;28;20498;-70
2022/06/24 00:21:39;;;;;;;3.42;1.45;;;;;;;;;;5020406;28;20079;-70
2022/06/24 00:24:05;;;;;;;9.90;1.30;;;;;;;;;;5021113;28;20041;-70
2022/06/24 00:26:40;;;;;;;5.40;2.20;;;;;;;;;;5020059;28;20026;-68
2022/06/24 00:29:06;;;;;;;3.72;1.30;;;;;;;;;;5019311;28;20033;-65
2022/06/24 00:31:32;;;;;;;5.43;1.50;;;;;;;;;;5020514;28;20494;-65
2022/06/24 00:33:57;;;;;;;6.00;1.20;;;;;;;;;;5021007;28;20041;-67
2022/06/24 00:36:23;;;;;;;5.60;1.17;;;;;;;;;;5003462;28;20033;-67
2022/06/24 00:38:51;;;;;;;3.97;1.40;;;;;;;;;;5020861;28;20537;-68
2022/06/24 00:41:23;;;;;;;6.43;1.10;;;;;;;;;;5020532;28;20315;-68
2022/06/24 00:43:58;;;;;;;4.85;1.00;;;;;;;;;;5020300;28;20033;-66
2022/06/24 00:46:23;;;;;;;4.00;1.20;;;;;;;;;;5021054;28;20512;-67
2022/06/24 00:48:51;;;;;;;2.60;1.10;;;;;;;;;;5020303;28;20041;-67
2022/06/24 00:51:18;;;;;;;6.53;1.40;;;;;;;;;;5020426;28;20033;-68
2022/06/24 00:53:50;;;;;;;2.38;1.00;;;;;;;;;;5020588;28;20040;-66
2022/06/24 00:56:18;;;;;;;4.35;1.02;;;;;;;;;;5021078;28;20072;-66
2022/06/24 00:59:02;;;;;;;3.85;1.00;;;;;;;;;;5020980;28;20037;-67
2022/06/24 01:01:35;;;;;;;2.05;0.80;;;;;;;;;;5020762;28;21037;-68
2022/06/24 01:04:03;;;;;;;3.50;0.98;;;;;;;;;;5020149;28;20042;-68
2022/06/24 01:06:29;;;;;;;3.08;1.00;;;;;;;;;;5020657;28;20037;-68
2022/06/24 01:08:55;;;;;;;4.63;1.20;;;;;;;;;;5020431;28;20448;-67
2022/06/24 01:11:25;;;;;;;3.05;1.20;;;;;;;;;;5021032;28;20041;-68
2022/06/24 01:13:51;;;;;;;2.17;1.00;;;;;;;;;;5020275;28;20482;-69
2022/06/24 01:16:20;;;;;;;3.72;1.10;;;;;;;;;;5021585;28;20117;-68
2022/06/24 01:18:45;;;;;;;1.48;0.80;;;;;;;;;;5021805;28;20041;-69
2022/06/24 01:21:29;;;;;;;1.55;0.80;;;;;;;;;;5021974;28;20402;-68
2022/06/24 01:24:10;;;;;;;4.20;1.10;;;;;;;;;;5021351;28;20080;-69
2022/06/24 01:26:36;;;;;;;2.22;0.95;;;;;;;;;;5020104;28;20136;-69
2022/06/24 01:29:02;;;;;;;2.35;1.00;;;;;;;;;;5020644;28;20048;-68
2022/06/24 01:31:28;;;;;;;2.50;0.80;;;;;;;;;;5020798;28;20038;-68
2022/06/24 01:33:53;;;;;;;2.75;0.82;;;;;;;;;;5020866;28;20045;-70
2022/06/24 01:36:19;;;;;;;1.80;0.68;;;;;;;;;;5020686;28;20029;-68
2022/06/24 01:38:45;;;;;;;3.83;0.98;;;;;;;;;;5021202;28;20056;-68
2022/06/24 01:41:10;;;;;;;2.40;0.93;;;;;;;;;;5021212;28;20033;-70
2022/06/24 01:43:35;;;;;;;1.88;0.90;;;;;;;;;;5021103;28;20041;-70
2022/06/24 01:46:01;;;;;;;3.03;0.80;;;;;;;;;;5021241;28;20160;-69
2022/06/24 01:48:27;;;;;;;2.35;1.10;;;;;;;;;;5020748;28;20139;-68
2022/06/24 01:50:52;;;;;;;2.38;0.80;;;;;;;;;;5020976;28;20052;-68
2022/06/24 01:53:18;;;;;;;5.30;0.60;;;;;;;;;;5021017;28;20402;-71
2022/06/24 01:55:43;;;;;;;1.48;0.50;;;;;;;;;;5019869;28;20041;-69
2022/06/24 01:58:09;;;;;;;1.05;0.65;;;;;;;;;;5014632;28;20071;-70
2022/06/24 02:00:35;;;;;;;3.58;0.95;;;;;;;;;;5021324;28;20033;-68
2022/06/24 02:03:04;;;;;;;1.67;0.75;;;;;;;;;;5024076;28;20406;-68
2022/06/24 02:05:30;;;;;;;0.60;0.60;;;;;;;;;;5024503;28;20037;-68
2022/06/24 02:07:56;;;;;;;2.22;0.73;;;;;;;;;;5024242;28;20037;-69
2022/06/24 02:15:51;;;;;;;5.40;0.90;;;;;;;;;;5039404;28;20457;-68
2022/06/24 02:18:16;;;;;;;4.07;1.00;;;;;;;;;;5022320;28;21011;-69
2022/06/24 02:20:42;;;;;;;2.00;0.93;;;;;;;;;;5022590;28;20034;-69
2022/06/24 02:23:07;;;;;;;2.05;1.00;;;;;;;;;;5022928;28;20048;-68
2022/06/24 02:25:33;;;;;;;5.25;0.88;;;;;;;;;;5023234;28;20128;-69
2022/06/24 02:27:58;;;;;;;2.38;0.93;;;;;;;;;;5023624;28;20152;-69
2022/06/24 02:30:23;;;;;;;3.22;0.90;;;;;;;;;;5022850;28;20136;-69
2022/06/24 02:32:49;;;;;;;5.90;0.98;;;;;;;;;;5023273;28;20037;-69
2022/06/24 02:35:14;;;;;;;5.07;1.65;;;;;;;;;;5022997;28;20048;-68
2022/06/24 02:37:40;;;;;;;9.48;1.38;;;;;;;;;;5023142;28;20033;-68
2022/06/24 02:42:57;;;;;;;1.70;0.80;;;;;;;;;;5021505;28;20037;-69
2022/06/24 02:45:22;;;;;;;2.25;0.95;;;;;;;;;;5022830;28;20099;-69
2022/06/24 02:47:48;;;;;;;3.75;1.00;;;;;;;;;;5023101;28;20025;-69
2022/06/24 02:50:13;;;;;;;1.70;0.80;;;;;;;;;;5024040;28;20115;-67
2022/06/24 02:52:39;;;;;;;4.97;1.05;;;;;;;;;;5023769;28;20963;-67
2022/06/24 02:55:05;;;;;;;4.38;0.85;;;;;;;;;;5024021;28;20045;-68
2022/06/24 02:57:30;;;;;;;5.40;1.10;;;;;;;;;;5022190;28;20065;-67
2022/06/24 02:59:55;;;;;;;5.68;1.15;;;;;;;;;;5021215;28;21066;-68
2022/06/24 03:02:21;;;;;;;1.85;0.88;;;;;;;;;;5022302;28;20417;-68
2022/06/24 03:04:46;;;;;;;5.65;0.95;;;;;;;;;;5021920;28;20048;-68
2022/06/24 03:07:11;;;;;;;6.20;1.17;;;;;;;;;;5022764;28;20033;-67
2022/06/24 03:09:37;;;;;;;1.98;0.70;;;;;;;;;;5022653;28;20037;-69
2022/06/24 03:12:03;;;;;;;3.92;0.80;;;;;;;;;;5020167;28;20033;-66
2022/06/24 03:14:28;;;;;;;5.97;0.65;;;;;;;;;;5021642;28;20049;-67
2022/06/24 03:16:53;;;;;;;2.70;0.73;;;;;;;;;;5021150;28;20033;-68
2022/06/24 03:19:19;;;;;;;2.63;0.63;;;;;;;;;;5022512;28;20041;-69
2022/06/24 03:21:44;;;;;;;4.25;0.75;;;;;;;;;;5022492;28;20044;-69
2022/06/24 03:24:09;;;;;;;5.10;0.88;;;;;;;;;;5021868;28;20088;-69
2022/06/24 03:26:35;;;;;;;1.88;0.70;;;;;;;;;;5021634;28;20044;-68
2022/06/24 03:29:00;;;;;;;4.97;0.90;;;;;;;;;;5022078;28;20064;-68
2022/06/24 03:31:26;;;;;;;1.45;0.60;;;;;;;;;;5004383;28;20080;-69
2022/06/24 03:33:51;;;;;;;1.88;0.68;;;;;;;;;;5021755;28;20406;-69
2022/06/24 03:36:16;;;;;;;4.13;0.88;;;;;;;;;;5021401;28;20091;-69
2022/06/24 03:38:42;;;;;;;1.40;0.63;;;;;;;;;;5022265;28;20124;-68
2022/06/24 03:41:07;;;;;;;2.22;0.80;;;;;;;;;;5021852;28;20037;-68
2022/06/24 03:43:33;;;;;;;1.13;0.60;;;;;;;;;;5021643;28;20091;-68
2022/06/24 03:46:02;;;;;;;4.78;0.77;;;;;;;;;;5021748;28;20140;-68
2022/06/24 03:48:31;;;;;;;2.25;0.70;;;;;;;;;;5019789;28;20084;-66
2022/06/24 03:50:57;;;;;;;4.55;0.70;;;;;;;;;;5022693;28;20052;-69
2022/06/24 03:53:23;;;;;;;1.10;0.68;;;;;;;;;;5023656;28;20441;-69
2022/06/24 03:55:49;;;;;;;2.63;0.70;;;;;;;;;;5021900;28;20048;-69
2022/06/24 03:58:16;;;;;;;4.13;1.20;;;;;;;;;;5019522;28;20047;-70
2022/06/24 04:00:41;;;;;;;3.95;0.90;;;;;;;;;;5020949;28;20038;-70
2022/06/24 04:03:07;;;;;;;6.32;0.70;;;;;;;;;;5021271;28;20039;-69
2022/06/24 04:05:32;;;;;;;8.45;0.95;;;;;;;;;;5021580;28;20045;-70
2022/06/24 04:07:58;;;;;;;4.50;0.80;;;;;;;;;;5018816;28;20689;-70
2022/06/24 04:10:23;;;;;;;5.60;0.70;;;;;;;;;;5020530;28;20037;-70
2022/06/24 04:12:48;;;;;;;3.92;0.80;;;;;;;;;;5020603;28;20064;-70
2022/06/24 04:15:14;;;;;;;3.38;0.85;;;;;;;;;;5021355;28;20382;-70
2022/06/24 04:17:40;;;;;;;2.05;0.80;;;;;;;;;;5021375;28;20487;-70
2022/06/24 04:20:06;;;;;;;2.88;0.80;;;;;;;;;;5021169;28;20036;-70
2022/06/24 04:22:31;;;;;;;3.10;0.90;;;;;;;;;;5019488;28;20045;-69
2022/06/24 04:24:57;;;;;;;7.80;0.80;;;;;;;;;;5020838;28;20044;-69
2022/06/24 04:27:22;;;;;;;4.00;0.80;;;;;;;;;;5021140;28;20049;-70
2022/06/24 04:29:48;;;;;;;7.30;0.90;;;;;;;;;;5021207;28;20072;-69
2022/06/24 04:32:13;;;;;;;1.90;0.80;;;;;;;;;;5019822;28;20520;-69
2022/06/24 04:34:39;;;;;;;5.53;0.90;;;;;;;;;;5020757;28;20161;-69
2022/06/24 04:37:06;;;;;;;6.28;1.10;;;;;;;;;;5019922;28;20041;-69
2022/06/24 04:39:32;;;;;;;5.85;1.10;;;;;;;;;;5015053;28;20086;-68
2022/06/24 04:41:57;;;;;;;13.00;1.25;;;;;;;;;;5020188;28;20033;-67
2022/06/24 04:44:23;;;;;;;4.60;0.95;;;;;;;;;;5019838;28;20029;-67
2022/06/24 04:46:48;;;;;;;7.95;0.93;;;;;;;;;;5020124;28;20115;-66
2022/06/24 04:49:14;;;;;;;4.30;0.80;;;;;;;;;;5001800;28;20136;-68
2022/06/24 04:51:39;;;;;;;8.93;0.98;;;;;;;;;;5020235;28;20474;-67
2022/06/24 04:54:05;;;;;;;2.50;0.93;;;;;;;;;;5019437;28;20124;-66
2022/06/24 04:56:30;;;;;;;5.05;1.35;;;;;;;;;;5020659;28;20052;-68
2022/06/24 04:58:55;;;;;;;5.55;0.98;;;;;;;;;;5020096;28;20398;-66
2022/06/24 05:01:21;;;;;;;4.07;1.60;;;;;;;;;;5019463;28;20102;-68
2022/06/24 05:03:46;;;;;;;4.43;0.85;;;;;;;;;;5020248;28;20044;-67
2022/06/24 05:06:12;;;;;;;3.35;1.02;;;;;;;;;;5016640;28;20047;-67
2022/06/24 05:08:37;;;;;;;8.15;1.25;;;;;;;;;;5020473;28;20112;-68
2022/06/24 05:11:03;;;;;;;6.93;0.98;;;;;;;;;;5020076;28;20405;-69
2022/06/24 05:13:28;;;;;;;3.45;1.13;;;;;;;;;;5019136;28;20747;-68
2022/06/24 05:15:54;;;;;;;7.85;1.13;;;;;;;;;;5018716;28;20037;-68
2022/06/24 05:18:20;;;;;;;3.53;1.10;;;;;;;;;;5019361;28;20037;-69
2022/06/24 05:20:45;;;;;;;4.30;1.13;;;;;;;;;;5020171;28;20048;-69
2022/06/24 05:23:11;;;;;;;10.88;1.15;;;;;;;;;;5019110;28;20124;-71
2022/06/24 05:25:37;;;;;;;8.27;1.10;;;;;;;;;;5020296;28;20486;-69
2022/06/24 05:28:02;;;;;;;2.03;1.00;;;;;;;;;;5019492;28;20038;-70
2022/06/24 05:30:28;;;;;;;2.33;0.70;;;;;;;;;;5020134;28;20167;-70
2022/06/24 05:32:53;;;;;;;6.35;1.20;;;;;;;;;;5019845;28;20038;-70
2022/06/24 05:35:19;;;;;;;4.28;1.15;;;;;;;;;;5022760;28;20071;-69
2022/06/24 05:37:44;;;;;;;6.13;0.73;;;;;;;;;;5022741;28;20153;-69
2022/06/24 05:40:10;;;;;;;4.45;1.02;;;;;;;;;;5024110;28;20041;-69
2022/06/24 05:42:36;;;;;;;7.43;0.90;;;;;;;;;;5023549;28;20555;-70
2022/06/24 05:45:01;;;;;;;2.33;0.70;;;;;;;;;;5024091;28;20037;-69
2022/06/24 05:47:27;;;;;;;4.30;0.82;;;;;;;;;;5023109;28;20439;-70
2022/06/24 05:49:52;;;;;;;2.92;0.85;;;;;;;;;;5022111;28;20049;-69
2022/06/24 05:55:02;;;;;;;3.03;0.90;;;;;;;;;;5023493;28;20041;-70
2022/06/24 05:55:04;;;;;;;2.13;0.85;;;;;;;;;;5023620;28;20038;-69
2022/06/24 05:57:30;;;;;;;3.42;0.77;;;;;;;;;;5023766;28;20045;-70
2022/06/24 05:59:55;;;;;;;1.67;0.77;;;;;;;;;;5023133;28;20052;-78
2022/06/24 06:02:22;;;;;;;4.35;0.93;;;;;;;;;;5018430;28;20569;-71
2022/06/24 06:04:48;;;;;;;9.65;1.00;;;;;;;;;;5022809;28;20029;-75
2022/06/24 06:07:14;;;;;;;1.73;0.70;;;;;;;;;;5022993;28;20087;-74
2022/06/24 06:09:39;;;;;;;4.15;1.42;;;;;;;;;;5023408;28;20030;-71
2022/06/24 06:12:05;;;;;;;5.07;0.90;;;;;;;;;;5022315;28;20037;-72
2022/06/24 06:14:30;;;;;;;4.63;0.82;;;;;;;;;;5023231;28;20128;-73
2022/06/24 06:16:56;;;;;;;4.85;0.95;;;;;;;;;;5023384;28;20022;-78
2022/06/24 06:19:21;;;;;;;2.35;0.93;;;;;;;;;;5023251;28;20722;-72
2022/06/24 06:21:47;;;;;;;4.32;0.80;;;;;;;;;;5022143;28;20111;-72
2022/06/24 06:24:12;;;;;;;10.30;1.27;;;;;;;;;;5022276;28;20041;-71
2022/06/24 06:26:37;;;;;;;5.20;1.00;;;;;;;;;;5023063;28;20069;-71
2022/06/24 06:29:04;;;;;;;4.93;1.00;;;;;;;;;;5023148;28;20095;-72
2022/06/24 06:31:29;;;;;;;6.65;1.23;;;;;;;;;;5022793;28;20055;-73
2022/06/24 06:33:55;;;;;;;5.68;1.10;;;;;;;;;;5020329;28;20565;-72
2022/06/24 06:36:21;;;;;;;4.00;1.02;;;;;;;;;;5021694;28;20037;-70
2022/06/24 06:38:46;;;;;;;5.28;1.05;;;;;;;;;;5038199;28;20099;-72
2022/06/24 06:41:17;;;;;;;2.95;0.82;;;;;;;;;;5022516;28;20072;-75
2022/06/24 06:43:42;;;;;;;5.00;1.08;;;;;;;;;;5021272;28;20041;-73
2022/06/24 06:46:12;;;;;;;4.93;1.02;;;;;;;;;;5021993;28;20378;-72
2022/06/24 06:48:38;;;;;;;3.40;1.00;;;;;;;;;;5023223;28;20036;-72
2022/06/24 06:51:04;;;;;;;2.28;0.70;;;;;;;;;;5022120;28;20067;-72
2022/06/24 06:53:29;;;;;;;7.18;0.88;;;;;;;;;;5021998;28;20041;-72
2022/06/24 06:55:56;;;;;;;5.70;1.17;;;;;;;;;;5021698;28;20103;-72
2022/06/24 06:58:22;;;;;;;3.53;0.93;;;;;;;;;;5022900;28;20485;-72
2022/06/24 07:00:48;;;;;;;3.45;1.17;;;;;;;;;;5023697;28;20044;-72
2022/06/24 07:03:13;;;;;;;6.63;1.55;;;;;;;;;;5021919;28;20834;-72
2022/06/24 07:05:42;;;;;;;3.65;0.98;;;;;;;;;;5022236;28;20959;-73
2022/06/24 07:08:08;;;;;;;2.42;0.95;;;;;;;;;;5022560;28;20041;-72
2022/06/24 07:10:34;;;;;;;4.50;0.90;;;;;;;;;;5022348;28;20548;-72
2022/06/24 07:12:59;;;;;;;3.88;0.95;;;;;;;;;;5019082;28;20037;-72
2022/06/24 07:15:25;;;;;;;4.32;0.70;;;;;;;;;;5022695;28;20045;-72
2022/06/24 07:17:50;;;;;;;4.88;0.73;;;;;;;;;;5021735;28;20140;-73
2022/06/24 07:20:15;;;;;;;3.15;1.00;;;;;;;;;;5020822;28;20047;-73
2022/06/24 07:22:41;;;;;;;8.20;1.05;;;;;;;;;;5021620;28;20045;-73
2022/06/24 07:25:07;;;;;;;3.72;1.08;;;;;;;;;;5021554;28;20398;-73
2022/06/24 07:27:33;;;;;;;3.80;0.98;;;;;;;;;;5021864;28;20068;-73
2022/06/24 07:29:59;;;;;;;2.30;0.82;;;;;;;;;;5022033;28;20470;-76
2022/06/24 07:32:24;;;;;;;4.97;0.70;;;;;;;;;;5021883;28;20037;-71
2022/06/24 07:34:50;;;;;;;3.72;1.33;;;;;;;;;;5021545;28;20171;-71
2022/06/24 07:37:15;;;;;;;4.55;1.00;;;;;;;;;;5022150;28;20037;-71
2022/06/24 07:39:41;;;;;;;1.38;0.73;;;;;;;;;;5019894;28;20041;-72
2022/06/24 07:42:06;;;;;;;0.82;0.70;;;;;;;;;;5020620;28;20041;-72
2022/06/24 07:44:31;;;;;;;1.88;0.68;;;;;;;;;;5019135;28;20111;-71
2022/06/24 07:46:57;;;;;;;4.45;0.90;;;;;;;;;;5021575;28;20033;-69
2022/06/24 07:49:23;;;;;;;4.35;1.02;;;;;;;;;;5021195;28;20029;-70
2022/06/24 07:51:48;;;;;;;2.92;0.80;;;;;;;;;;5021373;28;20433;-71
2022/06/24 07:54:14;;;;;;;1.55;0.77;;;;;;;;;;5020474;28;20481;-71
2022/06/24 07:56:58;;;;;;;3.22;0.88;;;;;;;;;;5021328;28;20044;-71
2022/06/24 07:59:27;;;;;;;5.13;0.80;;;;;;;;;;5020699;28;20529;-71
2022/06/24 08:01:54;;;;;;;3.35;0.90;;;;;;;;;;5020925;28;20041;-71
2022/06/24 08:04:25;;;;;;;3.25;0.60;;;;;;;;;;5018304;28;20474;-70
2022/06/24 08:06:52;;;;;;;1.17;0.60;;;;;;;;;;5020758;28;20482;-72
2022/06/24 08:09:19;;;;;;;5.60;1.02;;;;;;;;;;5021230;28;20099;-69
2022/06/24 08:11:45;;;;;;;3.13;0.75;;;;;;;;;;5019247;28;20041;-71
2022/06/24 08:14:10;;;;;;;3.38;0.90;;;;;;;;;;5019543;28;20033;-71
2022/06/24 08:16:36;;;;;;;3.40;0.70;;;;;;;;;;5021319;28;20413;-71
2022/06/24 08:19:02;;;;;;;2.08;0.82;;;;;;;;;;5020992;28;20183;-71
2022/06/24 08:21:28;;;;;;;1.67;1.00;;;;;;;;;;5021277;28;20041;-68
2022/06/24 08:23:53;;;;;;;1.92;0.77;;;;;;;;;;5019230;28;20069;-69
2022/06/24 08:26:19;;;;;;;4.90;1.00;;;;;;;;;;5021137;28;20044;-70
2022/06/24 08:28:45;;;;;;;2.63;0.75;;;;;;;;;;5021459;28;20115;-71
2022/06/24 08:31:11;;;;;;;3.70;0.90;;;;;;;;;;5021142;28;20061;-71
2022/06/24 08:33:37;;;;;;;5.65;1.10;;;;;;;;;;5019372;28;20037;-70
2022/06/24 08:36:03;;;;;;;7.78;0.98;;;;;;;;;;5020168;28;20033;-70
2022/06/24 08:38:29;;;;;;;3.80;0.90;;;;;;;;;;5020000;28;20037;-69
2022/06/24 08:40:56;;;;;;;1.77;1.00;;;;;;;;;;5018970;28;20037;-70
2022/06/24 08:43:21;;;;;;;3.42;1.00;;;;;;;;;;5018442;28;20111;-69
2022/06/24 08:45:48;;;;;;;2.80;0.98;;;;;;;;;;5018197;28;20180;-70
2022/06/24 08:48:14;;;;;;;6.28;1.02;;;;;;;;;;5018436;28;20079;-70
2022/06/24 08:50:39;;;;;;;3.80;1.50;;;;;;;;;;5018886;28;20577;-70
2022/06/24 08:53:09;;;;;;;4.55;1.50;;;;;;;;;;5018138;28;20084;-69
2022/06/24 08:55:39;;;;;;;6.72;1.15;;;;;;;;;;5019337;28;20034;-70
2022/06/24 08:58:12;;;;;;;3.22;1.38;;;;;;;;;;5020410;28;20045;-71
2022/06/24 09:00:39;;;;;;;5.63;1.13;;;;;;;;;;5017890;28;20037;-70
2022/06/24 09:03:05;;;;;;;5.07;1.80;;;;;;;;;;5019360;28;20033;-68
2022/06/24 09:05:31;;;;;;;5.93;1.42;;;;;;;;;;5018731;28;20124;-69
2022/06/24 09:08:04;;;;;;;4.03;0.98;;;;;;;;;;5018573;28;20103;-71
2022/06/24 09:10:30;;;;;;;8.93;1.30;;;;;;;;;;5018779;28;20042;-71
2022/06/24 09:12:55;;;;;;;5.80;1.70;;;;;;;;;;5023834;28;20045;-71
2022/06/24 09:15:22;;;;;;;1.63;1.08;;;;;;;;;;5024233;28;20473;-70
2022/06/24 09:17:48;;;;;;;3.38;1.23;;;;;;;;;;5023741;28;20142;-71
2022/06/24 09:20:19;;;;;;;4.15;1.25;;;;;;;;;;5024342;28;20124;-70
2022/06/24 09:22:45;;;;;;;6.55;1.33;;;;;;;;;;5022604;28;20095;-70
2022/06/24 09:25:11;;;;;;;2.88;1.20;;;;;;;;;;5020269;28;20029;-68
2022/06/24 09:27:43;;;;;;;2.95;1.20;;;;;;;;;;5020910;28;20140;-69
2022/06/24 09:30:15;;;;;;;4.95;1.33;;;;;;;;;;5020674;28;20037;-70
2022/06/24 09:32:49;;;;;;;;;;;;;;;;;;5022340;28;20068;-70
2022/06/24 09:35:15;;;;;;;2.83;1.20;;;;;;;;;;5022561;28;19923;-70
2022/06/24 09:37:45;;;;;;;8.45;1.48;;;;;;;;;;5024283;28;20041;-71
2022/06/24 09:40:18;;;;;;;2.33;1.08;;;;;;;;;;5022784;28;20056;-70
2022/06/24 09:42:56;;;;;;;4.82;1.80;;;;;;;;;;5023280;28;20037;-68
2022/06/24 09:45:23;;;;;;;7.47;1.27;;;;;;;;;;5023253;28;20072;-70
2022/06/24 09:47:49;;;;;;;8.90;1.20;;;;;;;;;;5023758;28;20064;-71
2022/06/24 09:50:16;;;;;;;5.30;1.27;;;;;;;;;;5023672;28;20033;-71
2022/06/24 09:52:42;;;;;;;4.05;1.30;;;;;;;;;;5023251;28;20051;-71
2022/06/24 09:55:08;;;;;;;11.63;1.40;;;;;;;;;;5022537;28;20040;-69
2022/06/24 09:57:34;;;;;;;2.55;1.05;;;;;;;;;;5023157;28;20033;-71
2022/06/24 10:02:45;;;;;;;5.35;1.40;;;;;;;;;;5023118;28;20041;-70
2022/06/24 10:05:14;;;;;;;6.35;1.50;;;;;;;;;;5023640;28;20119;-71
2022/06/24 10:07:45;;;;;;;6.28;1.27;;;;;;;;;;5022669;28;20051;-71
2022/06/24 10:10:11;;;;;;;;;;;;;;;;;;5024108;28;20485;-71
2022/06/24 10:12:46;;;;;;;3.47;1.35;;;;;;;;;;5023552;28;19928;-72
2022/06/24 10:15:16;;;;;;;3.83;1.40;;;;;;;;;;5023202;28;20138;-71
2022/06/24 10:17:47;;;;;;;9.45;1.60;;;;;;;;;;5022940;28;20120;-71
2022/06/24 10:20:14;;;;;;;4.85;1.33;;;;;;;;;;5022802;28;20053;-71
2022/06/24 10:22:50;;;;;;;2.97;1.20;;;;;;;;;;5020279;28;20080;-71
2022/06/24 10:25:47;;;;;;;12.93;1.63;;;;;;;;;;5022303;28;20119;-70
2022/06/24 10:28:12;;;;;;;5.30;1.60;;;;;;;;;;5021602;28;20968;-70
2022/06/24 10:30:41;;;;;;;2.65;1.15;;;;;;;;;;5021937;28;20045;-71
2022/06/24 10:33:21;;;;;;;5.20;1.45;;;;;;;;;;5004759;28;20474;-71
2022/06/24 10:36:00;;;;;;;4.82;1.50;;;;;;;;;;5023182;28;20132;-68
2022/06/24 10:38:34;;;;;;;5.10;1.20;;;;;;;;;;5018749;28;20095;-72
2022/06/24 10:41:02;;;;;;;4.35;1.45;;;;;;;;;;5022385;28;20048;-71
2022/06/24 10:43:41;;;;;;;3.35;1.30;;;;;;;;;;5021793;28;20037;-70
2022/06/24 10:46:12;;;;;;;6.93;1.30;;;;;;;;;;5022379;28;20033;-70
2022/06/24 10:48:44;;;;;;;3.10;1.00;;;;;;;;;;5023214;28;20123;-71
2022/06/24 10:51:16;;;;;;;3.63;1.15;;;;;;;;;;5021623;28;20061;-68
2022/06/24 10:54:16;;;;;;;2.88;0.90;;;;;;;;;;5021887;28;20049;-70
2022/06/24 10:56:49;;;;;;;5.20;1.60;;;;;;;;;;4980450;28;20042;-71
2022/06/24 10:59:19;;;;;;;7.45;1.33;;;;;;;;;;5016100;28;20052;-71
2022/06/24 11:01:49;;;;;;;5.50;1.27;;;;;;;;;;5020437;28;20037;-72
2022/06/24 11:04:27;;;;;;;6.82;1.65;;;;;;;;;;5021934;28;20025;-72
2022/06/24 11:07:09;;;;;;;4.38;1.30;;;;;;;;;;5022345;28;20042;-71
2022/06/24 11:09:35;;;;;;;5.18;1.70;;;;;;;;;;5022466;28;20064;-70
2022/06/24 11:12:05;;;;;;;2.75;1.30;;;;;;;;;;5021714;28;20056;-71
2022/06/24 11:14:31;;;;;;;9.57;1.40;;;;;;;;;;5018183;28;20402;-72
2022/06/24 11:16:57;;;;;;;6.60;1.33;;;;;;;;;;5022039;28;20966;-72
2022/06/24 11:19:22;;;;;;;4.40;1.20;;;;;;;;;;5022413;28;20041;-71
2022/06/24 11:21:49;;;;;;;8.60;1.33;;;;;;;;;;5021968;28;20425;-70
2022/06/24 11:24:19;;;;;;;4.82;1.40;;;;;;;;;;5020555;28;20038;-72
2022/06/24 11:27:06;;;;;;;4.22;1.17;;;;;;;;;;5021764;28;20034;-72
2022/06/24 11:29:52;;;;;;;4.72;1.23;;;;;;;;;;5020913;28;20569;-73
2022/06/24 11:32:18;;;;;;;4.80;1.17;;;;;;;;;;5021293;28;20043;-73
2022/06/24 11:34:44;;;;;;;2.28;1.02;;;;;;;;;;5020162;28;20041;-69
2022/06/24 11:37:10;;;;;;;4.53;1.33;;;;;;;;;;5019941;28;20030;-72
2022/06/24 11:39:36;;;;;;;4.03;1.10;;;;;;;;;;5021839;28;20091;-72
2022/06/24 11:42:02;;;;;;;3.38;1.10;;;;;;;;;;5020513;28;20037;-72
2022/06/24 11:44:40;;;;;;;3.63;1.13;;;;;;;;;;5020340;28;20559;-71
2022/06/24 11:47:06;;;;;;;2.88;1.20;;;;;;;;;;5020916;28;20037;-70
2022/06/24 11:49:33;;;;;;;1.80;0.90;;;;;;;;;;5020192;28;20041;-71
2022/06/24 11:51:59;;;;;;;3.00;1.05;;;;;;;;;;5021464;28;20037;-71
2022/06/24 11:54:27;;;;;;;3.65;1.13;;;;;;;;;;5019675;28;20034;-70
2022/06/24 11:56:53;;;;;;;1.48;0.90;;;;;;;;;;5014490;28;20052;-71
2022/06/24 11:59:22;;;;;;;3.97;0.98;;;;;;;;;;5019928;28;20401;-71
2022/06/24 12:01:48;;;;;;;3.22;1.10;;;;;;;;;;5017269;28;21072;-70
2022/06/24 12:04:15;;;;;;;2.47;0.98;;;;;;;;;;5018974;28;20068;-71
2022/06/24 12:06:42;;;;;;;1.95;0.95;;;;;;;;;;5014778;28;20053;-71
2022/06/24 12:09:09;;;;;;;5.72;0.98;;;;;;;;;;5017519;28;20045;-71
2022/06/24 12:11:39;;;;;;;1.50;0.63;;;;;;;;;;5023935;28;20075;-74
2022/06/24 12:14:09;;;;;;;3.85;0.90;;;;;;;;;;5022329;28;20041;-73
2022/06/24 12:16:58;;;;;;;2.20;1.00;;;;;;;;;;5019143;28;20081;-75
2022/06/24 12:19:28;;;;;;;5.68;1.10;;;;;;;;;;5018895;28;20037;-75
2022/06/24 12:22:03;;;;;;;2.65;1.05;;;;;;;;;;5017550;28;20494;-71
2022/06/24 12:24:29;;;;;;;5.22;1.10;;;;;;;;;;5017892;28;20033;-75
2022/06/24 12:26:55;;;;;;;2.88;1.15;;;;;;;;;;5017692;28;20068;-71
2022/06/24 12:29:32;;;;;;;3.75;1.17;;;;;;;;;;5016925;28;20052;-75
2022/06/24 12:31:59;;;;;;;3.83;1.10;;;;;;;;;;5016691;28;20033;-72
2022/06/24 12:34:33;;;;;;;2.53;1.00;;;;;;;;;;5019249;28;20041;-71
2022/06/24 12:37:10;;;;;;;5.30;1.30;;;;;;;;;;5018636;28;20041;-72
2022/06/24 12:39:37;;;;;;;3.05;1.17;;;;;;;;;;5017379;28;20067;-74
2022/06/24 12:42:04;;;;;;;5.57;1.00;;;;;;;;;;5019433;28;20041;-72
2022/06/24 12:44:53;;;;;;;4.40;1.40;;;;;;;;;;5017771;28;20121;-71
2022/06/24 12:52:57;;;;;;;3.88;1.08;;;;;;;;;;5018555;28;20478;-73
2022/06/24 12:55:22;;;;;;;5.30;1.27;;;;;;;;;;5019414;28;20045;-74
2022/06/24 12:57:48;;;;;;;5.15;1.00;;;;;;;;;;5016976;28;20043;-71
2022/06/24 13:00:15;;;;;;;4.38;1.23;;;;;;;;;;5019492;28;20050;-76
2022/06/24 13:02:43;;;;;;;2.75;1.00;;;;;;;;;;5018703;28;20037;-74
2022/06/24 13:05:11;;;;;;;4.53;1.10;;;;;;;;;;5018924;28;20494;-73
2022/06/24 13:07:38;;;;;;;5.88;1.33;;;;;;;;;;5017986;28;20050;-75
2022/06/24 13:10:05;;;;;;;3.70;0.98;;;;;;;;;;5018647;28;20108;-73
2022/06/24 13:12:31;;;;;;;3.92;1.20;;;;;;;;;;5018932;28;20047;-72
2022/06/24 13:14:57;;;;;;;3.13;1.20;;;;;;;;;;5018238;28;20902;-74
2022/06/24 13:17:22;;;;;;;3.22;0.90;;;;;;;;;;5018510;28;20037;-74
2022/06/24 13:19:48;;;;;;;4.22;1.10;;;;;;;;;;5018356;28;20064;-73
2022/06/24 13:22:13;;;;;;;4.90;1.00;;;;;;;;;;5018865;28;20152;-71
2022/06/24 13:24:38;;;;;;;4.65;1.00;;;;;;;;;;5017636;28;20124;-71
2022/06/24 13:27:05;;;;;;;2.90;1.00;;;;;;;;;;5018485;28;20048;-71
2022/06/24 13:29:31;;;;;;;2.45;1.05;;;;;;;;;;5017658;28;20088;-75
2022/06/24 13:31:57;;;;;;;6.45;1.45;;;;;;;;;;5018986;28;20108;-72
2022/06/24 13:34:22;;;;;;;3.47;0.90;;;;;;;;;;5017920;28;20112;-71
2022/06/24 13:36:48;;;;;;;8.50;1.13;;;;;;;;;;5019226;28;20044;-78
2022/06/24 13:39:13;;;;;;;4.63;0.90;;;;;;;;;;5019735;28;20033;-72
2022/06/24 13:41:39;;;;;;;4.10;1.00;;;;;;;;;;5016668;28;20048;-77
2022/06/24 13:44:04;;;;;;;6.22;1.10;;;;;;;;;;5018724;28;20074;-72
2022/06/24 13:46:30;;;;;;;3.58;0.98;;;;;;;;;;5019198;28;20037;-73
2022/06/24 13:48:57;;;;;;;3.13;0.90;;;;;;;;;;5019679;28;20064;-70
2022/06/24 13:51:23;;;;;;;4.55;1.23;;;;;;;;;;5019880;28;20112;-73
2022/06/24 13:53:49;;;;;;;4.68;0.93;;;;;;;;;;5019305;28;20060;-77
2022/06/24 13:56:15;;;;;;;4.88;0.93;;;;;;;;;;5020237;28;20029;-74
2022/06/24 13:58:41;;;;;;;6.53;1.30;;;;;;;;;;5022645;28;20041;-73
2022/06/24 14:01:07;;;;;;;5.93;1.45;;;;;;;;;;5023168;28;20038;-72
2022/06/24 14:03:32;;;;;;;3.42;1.10;;;;;;;;;;5022414;28;20041;-72
2022/06/24 14:05:59;;;;;;;3.13;1.15;;;;;;;;;;5021134;28;20111;-72
2022/06/24 14:08:25;;;;;;;3.72;0.90;;;;;;;;;;5021199;28;20044;-72
2022/06/24 14:10:51;;;;;;;4.82;1.08;;;;;;;;;;5023563;28;20202;-76
2022/06/24 14:13:16;;;;;;;4.55;1.40;;;;;;;;;;5025595;28;20178;-72
2022/06/24 14:15:42;;;;;;;4.05;1.50;;;;;;;;;;5024714;28;20512;-72
2022/06/24 14:18:07;;;;;;;5.40;1.23;;;;;;;;;;5022139;28;20505;-73
2022/06/24 14:20:33;;;;;;;4.68;1.15;;;;;;;;;;5023602;28;20104;-72
2022/06/24 14:25:42;;;;;;;5.63;1.83;;;;;;;;;;5023123;28;20033;-72
2022/06/24 14:28:08;;;;;;;7.03;1.85;;;;;;;;;;5022036;28;20087;-74
2022/06/24 14:30:33;;;;;;;6.90;1.80;;;;;;;;;;5022969;28;20029;-72
2022/06/24 14:32:59;;;;;;;5.40;1.55;;;;;;;;;;5022757;28;20766;-71
2022/06/24 14:35:25;;;;;;;9.95;2.70;;;;;;;;;;5023060;28;20083;-72
2022/06/24 14:40:34;;;;;;;5.32;1.20;;;;;;;;;;5019245;28;20041;-74
2022/06/24 14:43:01;;;;;;;3.75;1.42;;;;;;;;;;5004679;28;20037;-72
2022/06/24 14:45:27;;;;;;;4.22;1.42;;;;;;;;;;5022805;28;20490;-73
2022/06/24 14:47:53;;;;;;;3.05;1.55;;;;;;;;;;5021214;28;20021;-73
2022/06/24 14:50:18;;;;;;;2.30;1.20;;;;;;;;;;5020281;28;20029;-72
2022/06/24 14:52:44;;;;;;;3.08;1.40;;;;;;;;;;5022752;28;20803;-74
2022/06/24 14:55:09;;;;;;;5.28;1.52;;;;;;;;;;5021908;28;20106;-72
2022/06/24 14:57:35;;;;;;;3.38;1.40;;;;;;;;;;5021042;28;20040;-72
2022/06/24 15:00:00;;;;;;;5.22;1.38;;;;;;;;;;5022125;28;20478;-71
2022/06/24 15:02:26;;;;;;;5.38;1.45;;;;;;;;;;5020568;28;20124;-73
2022/06/24 15:04:52;;;;;;;2.47;0.90;;;;;;;;;;5021638;28;20045;-71
2022/06/24 15:07:17;;;;;;;4.82;1.10;;;;;;;;;;5019782;28;20192;-73